sensor_id;sensor_type;location;lat;lon;timestamp;P1;durP1;ratioP1;P2;durP2;ratioP2
69410;SDS011;56604;48.652;9.194;2023-05-08T00:02:15;30.00;;;17.20;;
69410;SDS011;56604;48.652;9.194;2023-05-08T00:04:41;19.67;;;16.43;;
69410;SDS011;56604;48.652;9.194;2023-05-08T00:07:06;22.20;;;18.20;;
69410;SDS011;56604;48.652;9.194;2023-05-08T00:09:32;24.90;;;17.80;;
69410;SDS011;56604;48.652;9.194;2023-05-08T00:11:57;32.80;;;19.50;;
69410;SDS011;56604;48.652;9.194;2023-05-08T00:14:22;26.60;;;19.97;;
69410;SDS011;56604;48.652;9.194;2023-05-08T00:16:48;24.60;;;19.50;;
69410;SDS011;56604;48.652;9.194;2023-05-08T00:19:13;23.93;;;19.10;;
69410;SDS011;56604;48.652;9.194;2023-05-08T00:21:38;25.80;;;19.30;;
69410;SDS011;56604;48.652;9.194;2023-05-08T00:24:04;27.97;;;20.87;;
69410;SDS011;56604;48.652;9.194;2023-05-08T00:26:29;26.50;;;21.10;;
69410;SDS011;56604;48.652;9.194;2023-05-08T00:28:54;25.27;;;20.87;;
69410;SDS011;56604;48.652;9.194;2023-05-08T00:31:20;29.33;;;20.63;;
69410;SDS011;56604;48.652;9.194;2023-05-08T00:33:45;26.20;;;21.20;;
69410;SDS011;56604;48.652;9.194;2023-05-08T00:36:10;24.90;;;19.27;;
69410;SDS011;56604;48.652;9.194;2023-05-08T00:38:36;29.17;;;21.60;;
69410;SDS011;56604;48.652;9.194;2023-05-08T00:41:01;32.93;;;20.27;;
69410;SDS011;56604;48.652;9.194;2023-05-08T00:43:27;39.93;;;21.57;;
69410;SDS011;56604;48.652;9.194;2023-05-08T00:45:57;27.73;;;21.13;;
69410;SDS011;56604;48.652;9.194;2023-05-08T00:48:24;32.50;;;20.30;;
69410;SDS011;56604;48.652;9.194;2023-05-08T00:50:54;29.63;;;22.53;;
69410;SDS011;56604;48.652;9.194;2023-05-08T00:53:21;29.23;;;21.37;;
69410;SDS011;56604;48.652;9.194;2023-05-08T00:55:47;28.10;;;21.00;;
69410;SDS011;56604;48.652;9.194;2023-05-08T00:58:13;29.70;;;20.53;;
69410;SDS011;56604;48.652;9.194;2023-05-08T01:00:40;38.50;;;20.77;;
69410;SDS011;56604;48.652;9.194;2023-05-08T01:03:07;23.00;;;19.00;;
69410;SDS011;56604;48.652;9.194;2023-05-08T01:05:33;26.60;;;19.27;;
69410;SDS011;56604;48.652;9.194;2023-05-08T01:07:59;23.90;;;18.93;;
69410;SDS011;56604;48.652;9.194;2023-05-08T01:10:25;26.50;;;19.33;;
69410;SDS011;56604;48.652;9.194;2023-05-08T01:13:18;29.87;;;19.40;;
69410;SDS011;56604;48.652;9.194;2023-05-08T01:19:03;21.90;;;17.57;;
69410;SDS011;56604;48.652;9.194;2023-05-08T01:21:45;24.37;;;19.77;;
69410;SDS011;56604;48.652;9.194;2023-05-08T01:24:38;28.87;;;20.40;;
69410;SDS011;56604;48.652;9.194;2023-05-08T01:32:40;28.80;;;22.33;;
69410;SDS011;56604;48.652;9.194;2023-05-08T01:35:20;28.90;;;20.10;;
69410;SDS011;56604;48.652;9.194;2023-05-08T01:43:34;32.80;;;23.10;;
69410;SDS011;56604;48.652;9.194;2023-05-08T01:46:13;34.23;;;24.20;;
69410;SDS011;56604;48.652;9.194;2023-05-08T01:48:55;40.53;;;25.17;;
69410;SDS011;56604;48.652;9.194;2023-05-08T01:51:26;34.60;;;25.33;;
69410;SDS011;56604;48.652;9.194;2023-05-08T01:53:59;34.00;;;25.07;;
69410;SDS011;56604;48.652;9.194;2023-05-08T01:56:30;31.83;;;23.00;;
69410;SDS011;56604;48.652;9.194;2023-05-08T01:58:57;31.67;;;23.23;;
69410;SDS011;56604;48.652;9.194;2023-05-08T02:01:24;31.03;;;21.80;;
69410;SDS011;56604;48.652;9.194;2023-05-08T02:03:53;26.40;;;19.47;;
69410;SDS011;56604;48.652;9.194;2023-05-08T02:06:20;24.17;;;18.93;;
69410;SDS011;56604;48.652;9.194;2023-05-08T02:08:47;27.40;;;20.30;;
69410;SDS011;56604;48.652;9.194;2023-05-08T02:11:13;31.63;;;22.00;;
69410;SDS011;56604;48.652;9.194;2023-05-08T02:13:41;29.50;;;21.63;;
69410;SDS011;56604;48.652;9.194;2023-05-08T02:16:10;33.20;;;21.57;;
69410;SDS011;56604;48.652;9.194;2023-05-08T02:18:36;35.30;;;21.13;;
69410;SDS011;56604;48.652;9.194;2023-05-08T02:21:04;36.73;;;23.50;;
69410;SDS011;56604;48.652;9.194;2023-05-08T02:23:30;36.50;;;24.40;;
69410;SDS011;56604;48.652;9.194;2023-05-08T02:25:58;33.13;;;23.33;;
69410;SDS011;56604;48.652;9.194;2023-05-08T02:28:24;35.87;;;23.33;;
69410;SDS011;56604;48.652;9.194;2023-05-08T02:30:51;31.90;;;22.80;;
69410;SDS011;56604;48.652;9.194;2023-05-08T02:33:17;34.00;;;22.80;;
69410;SDS011;56604;48.652;9.194;2023-05-08T02:35:44;30.80;;;21.30;;
69410;SDS011;56604;48.652;9.194;2023-05-08T02:38:13;30.50;;;21.03;;
69410;SDS011;56604;48.652;9.194;2023-05-08T02:40:42;32.63;;;22.93;;
69410;SDS011;56604;48.652;9.194;2023-05-08T02:43:10;35.70;;;23.80;;
69410;SDS011;56604;48.652;9.194;2023-05-08T02:45:39;31.90;;;23.10;;
69410;SDS011;56604;48.652;9.194;2023-05-08T02:53:39;34.93;;;22.37;;
69410;SDS011;56604;48.652;9.194;2023-05-08T02:56:17;29.77;;;21.23;;
69410;SDS011;56604;48.652;9.194;2023-05-08T03:02:05;27.13;;;20.37;;
69410;SDS011;56604;48.652;9.194;2023-05-08T03:04:36;35.87;;;22.30;;
69410;SDS011;56604;48.652;9.194;2023-05-08T03:07:09;27.00;;;20.60;;
69410;SDS011;56604;48.652;9.194;2023-05-08T03:09:40;27.60;;;19.93;;
69410;SDS011;56604;48.652;9.194;2023-05-08T03:12:16;33.87;;;20.97;;
69410;SDS011;56604;48.652;9.194;2023-05-08T03:14:52;34.60;;;21.30;;
69410;SDS011;56604;48.652;9.194;2023-05-08T03:17:24;26.70;;;19.50;;
69410;SDS011;56604;48.652;9.194;2023-05-08T03:19:53;26.57;;;19.57;;
69410;SDS011;56604;48.652;9.194;2023-05-08T03:22:21;27.07;;;19.20;;
69410;SDS011;56604;48.652;9.194;2023-05-08T03:24:47;28.60;;;18.93;;
69410;SDS011;56604;48.652;9.194;2023-05-08T03:27:14;26.57;;;20.50;;
69410;SDS011;56604;48.652;9.194;2023-05-08T03:29:40;25.83;;;19.07;;
69410;SDS011;56604;48.652;9.194;2023-05-08T03:32:06;24.50;;;19.90;;
69410;SDS011;56604;48.652;9.194;2023-05-08T03:34:32;26.17;;;20.43;;
69410;SDS011;56604;48.652;9.194;2023-05-08T03:36:58;26.93;;;20.50;;
69410;SDS011;56604;48.652;9.194;2023-05-08T03:39:24;26.13;;;19.80;;
69410;SDS011;56604;48.652;9.194;2023-05-08T03:41:53;24.63;;;19.40;;
69410;SDS011;56604;48.652;9.194;2023-05-08T03:44:19;30.83;;;21.23;;
69410;SDS011;56604;48.652;9.194;2023-05-08T03:46:45;28.13;;;20.70;;
69410;SDS011;56604;48.652;9.194;2023-05-08T03:49:14;29.00;;;21.60;;
69410;SDS011;56604;48.652;9.194;2023-05-08T03:51:41;29.23;;;21.50;;
69410;SDS011;56604;48.652;9.194;2023-05-08T03:54:07;34.03;;;21.00;;
69410;SDS011;56604;48.652;9.194;2023-05-08T03:56:32;24.87;;;19.73;;
69410;SDS011;56604;48.652;9.194;2023-05-08T03:59:15;29.80;;;22.60;;
69410;SDS011;56604;48.652;9.194;2023-05-08T04:01:59;30.40;;;21.63;;
69410;SDS011;56604;48.652;9.194;2023-05-08T04:04:39;32.60;;;22.00;;
69410;SDS011;56604;48.652;9.194;2023-05-08T04:07:19;39.57;;;23.90;;
69410;SDS011;56604;48.652;9.194;2023-05-08T04:13:05;39.50;;;25.77;;
69410;SDS011;56604;48.652;9.194;2023-05-08T04:15:34;35.97;;;24.53;;
69410;SDS011;56604;48.652;9.194;2023-05-08T04:18:03;46.63;;;26.27;;
69410;SDS011;56604;48.652;9.194;2023-05-08T04:20:32;37.43;;;24.90;;
69410;SDS011;56604;48.652;9.194;2023-05-08T04:22:58;44.57;;;23.83;;
69410;SDS011;56604;48.652;9.194;2023-05-08T04:25:23;29.50;;;22.07;;
69410;SDS011;56604;48.652;9.194;2023-05-08T04:27:50;36.90;;;24.33;;
69410;SDS011;56604;48.652;9.194;2023-05-08T04:30:17;34.10;;;23.57;;
69410;SDS011;56604;48.652;9.194;2023-05-08T04:32:43;33.30;;;24.60;;
69410;SDS011;56604;48.652;9.194;2023-05-08T04:35:08;32.33;;;24.17;;
69410;SDS011;56604;48.652;9.194;2023-05-08T04:37:34;37.43;;;25.57;;
69410;SDS011;56604;48.652;9.194;2023-05-08T04:40:00;39.17;;;22.93;;
69410;SDS011;56604;48.652;9.194;2023-05-08T04:42:26;35.20;;;23.93;;
69410;SDS011;56604;48.652;9.194;2023-05-08T04:44:52;36.17;;;23.70;;
69410;SDS011;56604;48.652;9.194;2023-05-08T04:47:18;35.43;;;23.53;;
69410;SDS011;56604;48.652;9.194;2023-05-08T04:49:43;35.10;;;22.83;;
69410;SDS011;56604;48.652;9.194;2023-05-08T04:52:09;38.03;;;22.63;;
69410;SDS011;56604;48.652;9.194;2023-05-08T04:54:35;30.50;;;22.27;;
69410;SDS011;56604;48.652;9.194;2023-05-08T04:57:00;32.23;;;22.63;;
69410;SDS011;56604;48.652;9.194;2023-05-08T04:59:25;25.03;;;19.87;;
69410;SDS011;56604;48.652;9.194;2023-05-08T05:01:52;32.30;;;22.33;;
69410;SDS011;56604;48.652;9.194;2023-05-08T05:04:17;30.83;;;21.90;;
69410;SDS011;56604;48.652;9.194;2023-05-08T05:06:42;28.70;;;19.67;;
69410;SDS011;56604;48.652;9.194;2023-05-08T05:09:08;28.40;;;20.50;;
69410;SDS011;56604;48.652;9.194;2023-05-08T05:11:34;28.83;;;19.80;;
69410;SDS011;56604;48.652;9.194;2023-05-08T05:13:59;25.27;;;19.60;;
69410;SDS011;56604;48.652;9.194;2023-05-08T05:16:25;32.77;;;20.70;;
69410;SDS011;56604;48.652;9.194;2023-05-08T05:18:51;27.67;;;20.33;;
69410;SDS011;56604;48.652;9.194;2023-05-08T05:21:17;32.67;;;22.80;;
69410;SDS011;56604;48.652;9.194;2023-05-08T05:23:42;31.77;;;21.30;;
69410;SDS011;56604;48.652;9.194;2023-05-08T05:26:08;34.03;;;20.80;;
69410;SDS011;56604;48.652;9.194;2023-05-08T05:28:33;29.00;;;21.10;;
69410;SDS011;56604;48.652;9.194;2023-05-08T05:30:58;31.13;;;19.60;;
69410;SDS011;56604;48.652;9.194;2023-05-08T05:33:24;30.50;;;21.10;;
69410;SDS011;56604;48.652;9.194;2023-05-08T05:35:49;28.27;;;20.40;;
69410;SDS011;56604;48.652;9.194;2023-05-08T05:38:15;30.53;;;21.13;;
69410;SDS011;56604;48.652;9.194;2023-05-08T05:40:40;26.63;;;19.57;;
69410;SDS011;56604;48.652;9.194;2023-05-08T05:43:05;32.20;;;20.23;;
69410;SDS011;56604;48.652;9.194;2023-05-08T05:45:31;28.37;;;20.00;;
69410;SDS011;56604;48.652;9.194;2023-05-08T05:47:56;23.50;;;18.70;;
69410;SDS011;56604;48.652;9.194;2023-05-08T05:50:21;28.10;;;18.73;;
69410;SDS011;56604;48.652;9.194;2023-05-08T05:52:47;31.93;;;20.87;;
69410;SDS011;56604;48.652;9.194;2023-05-08T05:55:12;30.17;;;20.03;;
69410;SDS011;56604;48.652;9.194;2023-05-08T05:57:37;27.27;;;20.43;;
69410;SDS011;56604;48.652;9.194;2023-05-08T06:00:03;30.43;;;21.00;;
69410;SDS011;56604;48.652;9.194;2023-05-08T06:02:29;26.87;;;20.03;;
69410;SDS011;56604;48.652;9.194;2023-05-08T06:04:55;33.13;;;20.00;;
69410;SDS011;56604;48.652;9.194;2023-05-08T06:07:20;27.93;;;20.03;;
69410;SDS011;56604;48.652;9.194;2023-05-08T06:09:46;27.83;;;19.90;;
69410;SDS011;56604;48.652;9.194;2023-05-08T06:12:11;27.53;;;19.63;;
69410;SDS011;56604;48.652;9.194;2023-05-08T06:14:37;24.30;;;17.40;;
69410;SDS011;56604;48.652;9.194;2023-05-08T06:17:02;24.90;;;17.90;;
69410;SDS011;56604;48.652;9.194;2023-05-08T06:19:28;31.57;;;19.80;;
69410;SDS011;56604;48.652;9.194;2023-05-08T06:21:53;30.90;;;18.53;;
69410;SDS011;56604;48.652;9.194;2023-05-08T06:24:19;24.80;;;18.27;;
69410;SDS011;56604;48.652;9.194;2023-05-08T06:26:44;24.30;;;17.27;;
69410;SDS011;56604;48.652;9.194;2023-05-08T06:29:10;28.97;;;18.80;;
69410;SDS011;56604;48.652;9.194;2023-05-08T06:31:36;25.93;;;17.40;;
69410;SDS011;56604;48.652;9.194;2023-05-08T06:34:01;25.40;;;15.90;;
69410;SDS011;56604;48.652;9.194;2023-05-08T06:36:26;33.17;;;16.87;;
69410;SDS011;56604;48.652;9.194;2023-05-08T06:38:52;21.43;;;17.00;;
69410;SDS011;56604;48.652;9.194;2023-05-08T06:41:17;25.80;;;17.10;;
69410;SDS011;56604;48.652;9.194;2023-05-08T06:43:42;21.60;;;16.63;;
69410;SDS011;56604;48.652;9.194;2023-05-08T06:46:08;20.27;;;15.40;;
69410;SDS011;56604;48.652;9.194;2023-05-08T06:48:33;25.87;;;16.03;;
69410;SDS011;56604;48.652;9.194;2023-05-08T06:50:58;18.70;;;15.00;;
69410;SDS011;56604;48.652;9.194;2023-05-08T06:53:24;18.03;;;14.20;;
69410;SDS011;56604;48.652;9.194;2023-05-08T06:55:50;20.73;;;15.80;;
69410;SDS011;56604;48.652;9.194;2023-05-08T06:58:15;18.30;;;15.07;;
69410;SDS011;56604;48.652;9.194;2023-05-08T07:00:41;20.30;;;14.30;;
69410;SDS011;56604;48.652;9.194;2023-05-08T07:03:06;17.30;;;14.30;;
69410;SDS011;56604;48.652;9.194;2023-05-08T07:05:31;19.60;;;15.40;;
69410;SDS011;56604;48.652;9.194;2023-05-08T07:07:57;24.63;;;15.70;;
69410;SDS011;56604;48.652;9.194;2023-05-08T07:10:22;23.37;;;15.23;;
69410;SDS011;56604;48.652;9.194;2023-05-08T07:12:48;15.93;;;14.20;;
69410;SDS011;56604;48.652;9.194;2023-05-08T07:15:13;21.43;;;15.67;;
69410;SDS011;56604;48.652;9.194;2023-05-08T07:17:39;22.43;;;15.70;;
69410;SDS011;56604;48.652;9.194;2023-05-08T07:20:05;19.70;;;15.73;;
69410;SDS011;56604;48.652;9.194;2023-05-08T07:22:31;18.17;;;14.03;;
69410;SDS011;56604;48.652;9.194;2023-05-08T07:24:57;19.17;;;15.17;;
69410;SDS011;56604;48.652;9.194;2023-05-08T07:27:22;15.57;;;13.90;;
69410;SDS011;56604;48.652;9.194;2023-05-08T07:29:47;17.60;;;13.73;;
69410;SDS011;56604;48.652;9.194;2023-05-08T07:32:13;15.93;;;14.23;;
69410;SDS011;56604;48.652;9.194;2023-05-08T07:34:39;15.83;;;13.67;;
69410;SDS011;56604;48.652;9.194;2023-05-08T07:37:04;16.50;;;13.50;;
69410;SDS011;56604;48.652;9.194;2023-05-08T07:39:30;18.57;;;14.43;;
69410;SDS011;56604;48.652;9.194;2023-05-08T07:41:56;21.30;;;14.60;;
69410;SDS011;56604;48.652;9.194;2023-05-08T07:44:21;18.90;;;13.00;;
69410;SDS011;56604;48.652;9.194;2023-05-08T07:46:46;15.80;;;13.27;;
69410;SDS011;56604;48.652;9.194;2023-05-08T07:49:12;15.83;;;12.70;;
69410;SDS011;56604;48.652;9.194;2023-05-08T07:51:37;16.13;;;12.87;;
69410;SDS011;56604;48.652;9.194;2023-05-08T07:54:04;16.50;;;10.83;;
69410;SDS011;56604;48.652;9.194;2023-05-08T07:56:29;13.70;;;12.37;;
69410;SDS011;56604;48.652;9.194;2023-05-08T07:58:55;14.97;;;12.43;;
69410;SDS011;56604;48.652;9.194;2023-05-08T08:01:20;14.67;;;12.03;;
69410;SDS011;56604;48.652;9.194;2023-05-08T08:03:46;18.40;;;12.87;;
69410;SDS011;56604;48.652;9.194;2023-05-08T08:06:12;17.00;;;14.53;;
69410;SDS011;56604;48.652;9.194;2023-05-08T08:08:37;24.63;;;13.27;;
69410;SDS011;56604;48.652;9.194;2023-05-08T08:11:03;16.63;;;14.50;;
69410;SDS011;56604;48.652;9.194;2023-05-08T08:13:29;14.90;;;12.60;;
69410;SDS011;56604;48.652;9.194;2023-05-08T08:15:56;15.20;;;11.77;;
69410;SDS011;56604;48.652;9.194;2023-05-08T08:18:21;19.93;;;13.50;;
69410;SDS011;56604;48.652;9.194;2023-05-08T08:20:47;13.80;;;11.90;;
69410;SDS011;56604;48.652;9.194;2023-05-08T08:23:12;18.20;;;12.00;;
69410;SDS011;56604;48.652;9.194;2023-05-08T08:25:37;16.57;;;12.73;;
69410;SDS011;56604;48.652;9.194;2023-05-08T08:28:03;11.50;;;10.27;;
69410;SDS011;56604;48.652;9.194;2023-05-08T08:30:28;13.63;;;11.03;;
69410;SDS011;56604;48.652;9.194;2023-05-08T08:32:54;11.60;;;9.83;;
69410;SDS011;56604;48.652;9.194;2023-05-08T08:35:19;16.10;;;10.60;;
69410;SDS011;56604;48.652;9.194;2023-05-08T08:37:44;18.10;;;10.50;;
69410;SDS011;56604;48.652;9.194;2023-05-08T08:40:10;12.93;;;9.30;;
69410;SDS011;56604;48.652;9.194;2023-05-08T08:42:35;11.47;;;9.07;;
69410;SDS011;56604;48.652;9.194;2023-05-08T08:45:01;13.73;;;9.60;;
69410;SDS011;56604;48.652;9.194;2023-05-08T08:47:27;12.77;;;9.10;;
69410;SDS011;56604;48.652;9.194;2023-05-08T08:49:53;10.77;;;9.27;;
69410;SDS011;56604;48.652;9.194;2023-05-08T08:53:03;12.43;;;9.40;;
69410;SDS011;56604;48.652;9.194;2023-05-08T08:55:13;13.70;;;8.77;;
69410;SDS011;56604;48.652;9.194;2023-05-08T08:57:44;12.20;;;9.77;;
69410;SDS011;56604;48.652;9.194;2023-05-08T09:00:19;14.40;;;10.60;;
69410;SDS011;56604;48.652;9.194;2023-05-08T09:02:46;11.83;;;9.07;;
69410;SDS011;56604;48.652;9.194;2023-05-08T09:05:11;13.50;;;9.93;;
69410;SDS011;56604;48.652;9.194;2023-05-08T09:07:37;10.67;;;9.57;;
69410;SDS011;56604;48.652;9.194;2023-05-08T09:10:04;12.57;;;10.30;;
69410;SDS011;56604;48.652;9.194;2023-05-08T09:12:31;10.70;;;9.13;;
69410;SDS011;56604;48.652;9.194;2023-05-08T09:14:56;14.60;;;8.83;;
69410;SDS011;56604;48.652;9.194;2023-05-08T09:17:22;11.67;;;9.07;;
69410;SDS011;56604;48.652;9.194;2023-05-08T09:19:48;9.50;;;8.53;;
69410;SDS011;56604;48.652;9.194;2023-05-08T09:22:13;9.30;;;8.40;;
69410;SDS011;56604;48.652;9.194;2023-05-08T09:27:25;9.23;;;7.70;;
69410;SDS011;56604;48.652;9.194;2023-05-08T09:29:58;8.00;;;7.20;;
69410;SDS011;56604;48.652;9.194;2023-05-08T09:32:27;8.10;;;7.30;;
69410;SDS011;56604;48.652;9.194;2023-05-08T09:34:53;8.63;;;7.77;;
69410;SDS011;56604;48.652;9.194;2023-05-08T09:37:19;8.70;;;7.83;;
69410;SDS011;56604;48.652;9.194;2023-05-08T09:39:45;14.20;;;8.73;;
69410;SDS011;56604;48.652;9.194;2023-05-08T09:42:12;12.10;;;8.87;;
69410;SDS011;56604;48.652;9.194;2023-05-08T09:52:22;8.30;;;6.53;;
69410;SDS011;56604;48.652;9.194;2023-05-08T09:54:49;8.37;;;7.50;;
69410;SDS011;56604;48.652;9.194;2023-05-08T09:57:23;9.27;;;7.63;;
69410;SDS011;56604;48.652;9.194;2023-05-08T09:59:49;8.73;;;7.37;;
69410;SDS011;56604;48.652;9.194;2023-05-08T10:02:15;8.87;;;7.87;;
69410;SDS011;56604;48.652;9.194;2023-05-08T10:04:41;7.53;;;6.90;;
69410;SDS011;56604;48.652;9.194;2023-05-08T10:07:06;9.40;;;7.63;;
69410;SDS011;56604;48.652;9.194;2023-05-08T10:09:32;9.73;;;7.10;;
69410;SDS011;56604;48.652;9.194;2023-05-08T10:11:57;10.20;;;7.17;;
69410;SDS011;56604;48.652;9.194;2023-05-08T10:14:23;8.00;;;7.20;;
69410;SDS011;56604;48.652;9.194;2023-05-08T10:16:52;7.13;;;6.53;;
69410;SDS011;56604;48.652;9.194;2023-05-08T10:19:21;7.83;;;7.03;;
69410;SDS011;56604;48.652;9.194;2023-05-08T10:21:52;7.90;;;6.63;;
69410;SDS011;56604;48.652;9.194;2023-05-08T10:24:19;7.60;;;6.90;;
69410;SDS011;56604;48.652;9.194;2023-05-08T10:26:56;8.70;;;7.87;;
69410;SDS011;56604;48.652;9.194;2023-05-08T10:29:32;16.57;;;8.20;;
69410;SDS011;56604;48.652;9.194;2023-05-08T10:32:01;8.43;;;7.53;;
69410;SDS011;56604;48.652;9.194;2023-05-08T10:34:31;8.50;;;7.70;;
69410;SDS011;56604;48.652;9.194;2023-05-08T10:36:58;8.97;;;8.17;;
69410;SDS011;56604;48.652;9.194;2023-05-08T10:39:24;14.20;;;8.73;;
69410;SDS011;56604;48.652;9.194;2023-05-08T10:41:51;11.40;;;8.90;;
69410;SDS011;56604;48.652;9.194;2023-05-08T10:44:16;8.83;;;7.93;;
69410;SDS011;56604;48.652;9.194;2023-05-08T10:49:50;10.50;;;9.00;;
69410;SDS011;56604;48.652;9.194;2023-05-08T10:52:29;10.07;;;8.60;;
69410;SDS011;56604;48.652;9.194;2023-05-08T10:55:27;10.70;;;8.73;;
69410;SDS011;56604;48.652;9.194;2023-05-08T10:58:11;8.93;;;7.87;;
69410;SDS011;56604;48.652;9.194;2023-05-08T11:03:27;9.97;;;8.37;;
69410;SDS011;56604;48.652;9.194;2023-05-08T11:05:54;10.37;;;9.07;;
69410;SDS011;56604;48.652;9.194;2023-05-08T11:08:22;8.73;;;7.90;;
69410;SDS011;56604;48.652;9.194;2023-05-08T11:13:33;9.90;;;8.20;;
69410;SDS011;56604;48.652;9.194;2023-05-08T11:16:08;9.20;;;8.40;;
69410;SDS011;56604;48.652;9.194;2023-05-08T11:18:36;8.90;;;8.00;;
69410;SDS011;56604;48.652;9.194;2023-05-08T11:21:03;8.13;;;7.43;;
69410;SDS011;56604;48.652;9.194;2023-05-08T11:23:32;8.87;;;7.77;;
69410;SDS011;56604;48.652;9.194;2023-05-08T11:28:32;8.67;;;7.87;;
69410;SDS011;56604;48.652;9.194;2023-05-08T11:31:02;9.30;;;8.43;;
69410;SDS011;56604;48.652;9.194;2023-05-08T11:33:30;9.43;;;8.53;;
69410;SDS011;56604;48.652;9.194;2023-05-08T11:35:58;14.30;;;9.10;;
69410;SDS011;56604;48.652;9.194;2023-05-08T11:38:39;10.37;;;8.90;;
69410;SDS011;56604;48.652;9.194;2023-05-08T11:41:08;14.03;;;10.40;;
69410;SDS011;56604;48.652;9.194;2023-05-08T11:49:15;12.07;;;10.20;;
69410;SDS011;56604;48.652;9.194;2023-05-08T11:51:43;12.50;;;10.33;;
69410;SDS011;56604;48.652;9.194;2023-05-08T11:54:14;12.97;;;10.47;;
69410;SDS011;56604;48.652;9.194;2023-05-08T11:56:50;18.10;;;11.10;;
69410;SDS011;56604;48.652;9.194;2023-05-08T11:59:16;11.60;;;10.40;;
69410;SDS011;56604;48.652;9.194;2023-05-08T12:01:43;11.60;;;10.40;;
69410;SDS011;56604;48.652;9.194;2023-05-08T12:04:11;12.93;;;11.07;;
69410;SDS011;56604;48.652;9.194;2023-05-08T12:06:37;15.90;;;12.50;;
69410;SDS011;56604;48.652;9.194;2023-05-08T12:09:11;14.40;;;12.90;;
69410;SDS011;56604;48.652;9.194;2023-05-08T12:11:41;14.60;;;12.30;;
69410;SDS011;56604;48.652;9.194;2023-05-08T12:14:09;13.63;;;11.80;;
69410;SDS011;56604;48.652;9.194;2023-05-08T12:16:36;12.77;;;11.50;;
69410;SDS011;56604;48.652;9.194;2023-05-08T12:19:09;12.13;;;10.77;;
69410;SDS011;56604;48.652;9.194;2023-05-08T12:21:36;15.87;;;12.17;;
69410;SDS011;56604;48.652;9.194;2023-05-08T12:24:05;13.33;;;11.93;;
69410;SDS011;56604;48.652;9.194;2023-05-08T12:26:36;13.40;;;12.10;;
69410;SDS011;56604;48.652;9.194;2023-05-08T12:29:05;16.57;;;12.57;;
69410;SDS011;56604;48.652;9.194;2023-05-08T12:31:33;14.70;;;12.50;;
69410;SDS011;56604;48.652;9.194;2023-05-08T12:34:02;13.63;;;12.23;;
69410;SDS011;56604;48.652;9.194;2023-05-08T12:36:32;17.30;;;12.57;;
69410;SDS011;56604;48.652;9.194;2023-05-08T12:39:08;14.03;;;12.50;;
69410;SDS011;56604;48.652;9.194;2023-05-08T12:41:40;14.60;;;13.00;;
69410;SDS011;56604;48.652;9.194;2023-05-08T12:44:18;14.73;;;13.13;;
69410;SDS011;56604;48.652;9.194;2023-05-08T12:46:51;22.53;;;13.73;;
69410;SDS011;56604;48.652;9.194;2023-05-08T12:49:28;15.33;;;13.83;;
69410;SDS011;56604;48.652;9.194;2023-05-08T12:54:30;16.10;;;14.30;;
69410;SDS011;56604;48.652;9.194;2023-05-08T12:57:10;18.40;;;13.93;;
69410;SDS011;56604;48.652;9.194;2023-05-08T12:59:37;17.50;;;14.63;;
69410;SDS011;56604;48.652;9.194;2023-05-08T13:02:02;16.83;;;15.00;;
69410;SDS011;56604;48.652;9.194;2023-05-08T13:04:28;22.00;;;15.30;;
69410;SDS011;56604;48.652;9.194;2023-05-08T13:06:56;16.83;;;15.03;;
69410;SDS011;56604;48.652;9.194;2023-05-08T13:09:22;18.80;;;15.37;;
69410;SDS011;56604;48.652;9.194;2023-05-08T13:11:48;18.83;;;16.33;;
69410;SDS011;56604;48.652;9.194;2023-05-08T13:14:13;16.97;;;15.13;;
69410;SDS011;56604;48.652;9.194;2023-05-08T13:16:45;27.10;;;15.93;;
69410;SDS011;56604;48.652;9.194;2023-05-08T13:19:15;17.00;;;14.83;;
69410;SDS011;56604;48.652;9.194;2023-05-08T13:21:41;20.07;;;16.30;;
69410;SDS011;56604;48.652;9.194;2023-05-08T13:24:12;16.43;;;14.60;;
69410;SDS011;56604;48.652;9.194;2023-05-08T13:26:40;18.57;;;14.90;;
69410;SDS011;56604;48.652;9.194;2023-05-08T13:29:05;17.33;;;14.97;;
69410;SDS011;56604;48.652;9.194;2023-05-08T13:31:31;19.23;;;14.80;;
69410;SDS011;56604;48.652;9.194;2023-05-08T13:33:56;18.57;;;14.47;;
69410;SDS011;56604;48.652;9.194;2023-05-08T13:36:22;17.60;;;14.70;;
69410;SDS011;56604;48.652;9.194;2023-05-08T13:38:47;22.63;;;15.40;;
69410;SDS011;56604;48.652;9.194;2023-05-08T13:41:13;21.93;;;14.60;;
69410;SDS011;56604;48.652;9.194;2023-05-08T13:43:38;20.50;;;14.37;;
69410;SDS011;56604;48.652;9.194;2023-05-08T13:46:03;22.87;;;15.70;;
69410;SDS011;56604;48.652;9.194;2023-05-08T13:48:29;16.17;;;14.47;;
69410;SDS011;56604;48.652;9.194;2023-05-08T13:50:54;17.20;;;14.83;;
69410;SDS011;56604;48.652;9.194;2023-05-08T13:53:19;16.63;;;14.73;;
69410;SDS011;56604;48.652;9.194;2023-05-08T13:55:45;20.90;;;15.47;;
69410;SDS011;56604;48.652;9.194;2023-05-08T13:58:10;18.83;;;15.57;;
69410;SDS011;56604;48.652;9.194;2023-05-08T14:00:35;19.00;;;15.80;;
69410;SDS011;56604;48.652;9.194;2023-05-08T14:03:01;20.23;;;14.70;;
69410;SDS011;56604;48.652;9.194;2023-05-08T14:05:26;15.93;;;13.97;;
69410;SDS011;56604;48.652;9.194;2023-05-08T14:07:52;16.00;;;13.37;;
69410;SDS011;56604;48.652;9.194;2023-05-08T14:10:17;16.20;;;14.27;;
69410;SDS011;56604;48.652;9.194;2023-05-08T14:12:42;17.03;;;13.67;;
69410;SDS011;56604;48.652;9.194;2023-05-08T14:15:08;15.97;;;14.27;;
69410;SDS011;56604;48.652;9.194;2023-05-08T14:17:35;16.70;;;14.40;;
69410;SDS011;56604;48.652;9.194;2023-05-08T14:20:00;17.40;;;13.73;;
69410;SDS011;56604;48.652;9.194;2023-05-08T14:22:26;19.43;;;15.80;;
69410;SDS011;56604;48.652;9.194;2023-05-08T14:24:51;17.03;;;15.23;;
69410;SDS011;56604;48.652;9.194;2023-05-08T14:27:17;17.87;;;15.97;;
69410;SDS011;56604;48.652;9.194;2023-05-08T14:29:42;20.73;;;14.87;;
69410;SDS011;56604;48.652;9.194;2023-05-08T14:32:08;18.13;;;16.03;;
69410;SDS011;56604;48.652;9.194;2023-05-08T14:34:34;21.07;;;16.87;;
69410;SDS011;56604;48.652;9.194;2023-05-08T14:37:00;20.60;;;16.83;;
69410;SDS011;56604;48.652;9.194;2023-05-08T14:39:25;20.20;;;16.67;;
69410;SDS011;56604;48.652;9.194;2023-05-08T14:41:51;17.80;;;15.20;;
69410;SDS011;56604;48.652;9.194;2023-05-08T14:44:16;19.70;;;15.13;;
69410;SDS011;56604;48.652;9.194;2023-05-08T14:46:42;19.57;;;15.43;;
69410;SDS011;56604;48.652;9.194;2023-05-08T14:49:07;21.17;;;16.03;;
69410;SDS011;56604;48.652;9.194;2023-05-08T14:51:33;18.23;;;15.27;;
69410;SDS011;56604;48.652;9.194;2023-05-08T14:53:58;19.77;;;14.40;;
69410;SDS011;56604;48.652;9.194;2023-05-08T14:56:23;15.73;;;14.03;;
69410;SDS011;56604;48.652;9.194;2023-05-08T14:58:49;14.80;;;11.90;;
69410;SDS011;56604;48.652;9.194;2023-05-08T15:01:15;14.50;;;13.00;;
69410;SDS011;56604;48.652;9.194;2023-05-08T15:03:41;15.50;;;13.47;;
69410;SDS011;56604;48.652;9.194;2023-05-08T15:06:06;14.00;;;11.77;;
69410;SDS011;56604;48.652;9.194;2023-05-08T15:08:31;19.67;;;10.60;;
69410;SDS011;56604;48.652;9.194;2023-05-08T15:10:57;11.23;;;10.13;;
69410;SDS011;56604;48.652;9.194;2023-05-08T15:13:23;11.20;;;9.90;;
69410;SDS011;56604;48.652;9.194;2023-05-08T15:15:48;12.67;;;9.63;;
69410;SDS011;56604;48.652;9.194;2023-05-08T15:18:13;12.03;;;10.47;;
69410;SDS011;56604;48.652;9.194;2023-05-08T15:20:39;11.17;;;9.97;;
69410;SDS011;56604;48.652;9.194;2023-05-08T15:23:04;10.50;;;9.50;;
69410;SDS011;56604;48.652;9.194;2023-05-08T15:25:30;11.33;;;10.23;;